sensor_id;sensor_type;location;lat;lon;timestamp;pressure;altitude;pressure_sealevel;temperature;humidity
43741;BME280;29352;48.708;9.290;2023-02-19T00:04:09;98349.00;;;3.48;77.53
43741;BME280;29352;48.708;9.290;2023-02-19T00:06:41;98350.97;;;3.54;77.42
43741;BME280;29352;48.708;9.290;2023-02-19T00:09:10;98352.97;;;3.52;77.30
43741;BME280;29352;48.708;9.290;2023-02-19T00:11:38;98352.97;;;3.52;77.29
43741;BME280;29352;48.708;9.290;2023-02-19T00:14:05;98354.31;;;3.64;77.11
43741;BME280;29352;48.708;9.290;2023-02-19T00:16:38;98353.97;;;3.51;77.12
43741;BME280;29352;48.708;9.290;2023-02-19T00:19:06;98352.97;;;3.60;76.98
43741;BME280;29352;48.708;9.290;2023-02-19T00:21:36;98360.59;;;3.63;76.92
43741;BME280;29352;48.708;9.290;2023-02-19T00:24:04;98348.19;;;3.55;77.04
43741;BME280;29352;48.708;9.290;2023-02-19T00:26:32;98349.91;;;3.73;76.60
43741;BME280;29352;48.708;9.290;2023-02-19T00:29:00;98344.56;;;3.56;76.98
43741;BME280;29352;48.708;9.290;2023-02-19T00:31:31;98353.84;;;3.69;76.77
43741;BME280;29352;48.708;9.290;2023-02-19T00:34:01;98350.34;;;3.60;76.83
43741;BME280;29352;48.708;9.290;2023-02-19T00:36:29;98346.25;;;3.74;76.37
43741;BME280;29352;48.708;9.290;2023-02-19T00:38:56;98341.28;;;3.71;76.55
43741;BME280;29352;48.708;9.290;2023-02-19T00:41:23;98337.44;;;3.49;76.83
43741;BME280;29352;48.708;9.290;2023-02-19T00:44:00;98343.28;;;3.69;76.51
43741;BME280;29352;48.708;9.290;2023-02-19T00:48:58;98351.03;;;3.70;76.56
43741;BME280;29352;48.708;9.290;2023-02-19T00:51:29;98353.50;;;3.64;76.70
43741;BME280;29352;48.708;9.290;2023-02-19T00:53:57;98357.56;;;3.50;76.62
43741;BME280;29352;48.708;9.290;2023-02-19T00:56:22;98355.03;;;3.32;76.94
43741;BME280;29352;48.708;9.290;2023-02-19T00:58:49;98359.75;;;3.63;76.43
43741;BME280;29352;48.708;9.290;2023-02-19T01:01:15;98348.34;;;3.54;76.12
43741;BME280;29352;48.708;9.290;2023-02-19T01:03:41;98353.50;;;3.64;75.91
43741;BME280;29352;48.708;9.290;2023-02-19T01:06:09;98348.34;;;3.54;76.35
43741;BME280;29352;48.708;9.290;2023-02-19T01:08:36;98349.66;;;3.50;76.25
43741;BME280;29352;48.708;9.290;2023-02-19T01:11:05;98348.56;;;3.69;75.96
43741;BME280;29352;48.708;9.290;2023-02-19T01:13:32;98335.38;;;3.69;75.79
43741;BME280;29352;48.708;9.290;2023-02-19T01:16:03;98332.03;;;3.59;75.89
43741;BME280;29352;48.708;9.290;2023-02-19T01:18:29;98329.03;;;3.45;76.47
43741;BME280;29352;48.708;9.290;2023-02-19T01:20:55;98326.19;;;3.39;76.40
43741;BME280;29352;48.708;9.290;2023-02-19T01:23:21;98320.94;;;3.39;76.36
43741;BME280;29352;48.708;9.290;2023-02-19T01:25:46;98305.00;;;3.22;76.81
43741;BME280;29352;48.708;9.290;2023-02-19T01:28:12;98315.81;;;3.37;76.76
43741;BME280;29352;48.708;9.290;2023-02-19T01:30:38;98317.59;;;3.37;76.57
43741;BME280;29352;48.708;9.290;2023-02-19T01:33:06;98309.75;;;3.45;76.43
43741;BME280;29352;48.708;9.290;2023-02-19T01:35:32;98315.97;;;3.36;76.78
43741;BME280;29352;48.708;9.290;2023-02-19T01:37:58;98314.63;;;3.31;77.00
43741;BME280;29352;48.708;9.290;2023-02-19T01:40:25;98316.16;;;3.42;77.32
43741;BME280;29352;48.708;9.290;2023-02-19T01:42:51;98311.31;;;3.29;78.27
43741;BME280;29352;48.708;9.290;2023-02-19T01:45:25;98310.38;;;3.47;78.89
43741;BME280;29352;48.708;9.290;2023-02-19T01:48:01;98303.41;;;3.29;79.86
43741;BME280;29352;48.708;9.290;2023-02-19T01:50:39;98302.25;;;3.24;80.40
43741;BME280;29352;48.708;9.290;2023-02-19T01:53:13;98305.31;;;3.19;81.04
43741;BME280;29352;48.708;9.290;2023-02-19T01:55:46;98297.22;;;3.13;80.18
43741;BME280;29352;48.708;9.290;2023-02-19T01:58:15;98303.66;;;3.18;80.72
43741;BME280;29352;48.708;9.290;2023-02-19T02:00:41;98304.03;;;3.23;79.81
43741;BME280;29352;48.708;9.290;2023-02-19T02:03:07;98304.59;;;3.01;80.63
43741;BME280;29352;48.708;9.290;2023-02-19T02:06:01;98296.53;;;3.02;80.32
43741;BME280;29352;48.708;9.290;2023-02-19T02:08:31;98297.69;;;3.08;80.40
43741;BME280;29352;48.708;9.290;2023-02-19T02:11:16;98294.94;;;3.18;79.64
43741;BME280;29352;48.708;9.290;2023-02-19T02:13:45;98298.19;;;3.12;80.13
43741;BME280;29352;48.708;9.290;2023-02-19T02:19:13;98301.31;;;3.07;79.79
43741;BME280;29352;48.708;9.290;2023-02-19T02:22:18;98299.69;;;3.06;79.96
43741;BME280;29352;48.708;9.290;2023-02-19T02:30:38;98300.41;;;2.90;80.68
43741;BME280;29352;48.708;9.290;2023-02-19T02:36:07;98288.94;;;2.99;81.23
43741;BME280;29352;48.708;9.290;2023-02-19T02:38:42;98288.56;;;2.94;81.36
43741;BME280;29352;48.708;9.290;2023-02-19T02:41:12;98284.72;;;2.80;81.87
43741;BME280;29352;48.708;9.290;2023-02-19T02:43:40;98280.00;;;2.58;82.37
43741;BME280;29352;48.708;9.290;2023-02-19T02:46:10;98280.63;;;2.86;81.82
43741;BME280;29352;48.708;9.290;2023-02-19T02:51:33;98279.81;;;2.85;81.68
43741;BME280;29352;48.708;9.290;2023-02-19T02:54:19;98276.25;;;2.69;81.94
43741;BME280;29352;48.708;9.290;2023-02-19T02:57:10;98283.19;;;2.70;82.12
43741;BME280;29352;48.708;9.290;2023-02-19T02:59:41;98277.44;;;2.74;81.92
43741;BME280;29352;48.708;9.290;2023-02-19T03:02:17;98264.91;;;2.68;82.23
43741;BME280;29352;48.708;9.290;2023-02-19T03:05:20;98268.25;;;2.78;81.77
43741;BME280;29352;48.708;9.290;2023-02-19T03:08:14;98273.06;;;2.57;82.35
43741;BME280;29352;48.708;9.290;2023-02-19T03:11:14;98259.47;;;2.78;81.97
43741;BME280;29352;48.708;9.290;2023-02-19T03:17:52;98274.13;;;2.72;82.13
43741;BME280;29352;48.708;9.290;2023-02-19T03:20:47;98265.84;;;3.01;80.62
43741;BME280;29352;48.708;9.290;2023-02-19T03:23:20;98267.22;;;2.71;81.83
43741;BME280;29352;48.708;9.290;2023-02-19T03:26:11;98265.47;;;2.54;83.21
43741;BME280;29352;48.708;9.290;2023-02-19T03:28:41;98266.34;;;2.63;83.67
43741;BME280;29352;48.708;9.290;2023-02-19T03:31:32;98269.09;;;2.53;84.61
43741;BME280;29352;48.708;9.290;2023-02-19T03:34:07;98267.13;;;2.55;84.50
43741;BME280;29352;48.708;9.290;2023-02-19T03:36:44;98267.03;;;2.38;84.83
43741;BME280;29352;48.708;9.290;2023-02-19T03:39:19;98264.25;;;2.22;85.54
43741;BME280;29352;48.708;9.290;2023-02-19T03:42:14;98263.25;;;2.41;85.21
43741;BME280;29352;48.708;9.290;2023-02-19T03:48:33;98280.22;;;2.47;84.40
43741;BME280;29352;48.708;9.290;2023-02-19T03:54:06;98282.41;;;2.25;84.96
43741;BME280;29352;48.708;9.290;2023-02-19T03:56:46;98286.44;;;2.37;85.55
43741;BME280;29352;48.708;9.290;2023-02-19T04:02:30;98283.44;;;2.32;85.97
43741;BME280;29352;48.708;9.290;2023-02-19T04:05:18;98285.75;;;2.35;85.78
43741;BME280;29352;48.708;9.290;2023-02-19T04:07:54;98290.38;;;2.16;86.12
43741;BME280;29352;48.708;9.290;2023-02-19T04:10:25;98293.91;;;2.24;85.49
43741;BME280;29352;48.708;9.290;2023-02-19T04:13:05;98300.84;;;2.25;85.08
43741;BME280;29352;48.708;9.290;2023-02-19T04:15:41;98296.81;;;2.13;85.33
43741;BME280;29352;48.708;9.290;2023-02-19T04:18:14;98296.78;;;2.31;84.86
43741;BME280;29352;48.708;9.290;2023-02-19T04:20:46;98302.34;;;2.28;84.70
43741;BME280;29352;48.708;9.290;2023-02-19T04:23:16;98310.75;;;2.31;84.57
43741;BME280;29352;48.708;9.290;2023-02-19T04:25:50;98308.03;;;2.41;84.01
43741;BME280;29352;48.708;9.290;2023-02-19T04:28:23;98311.25;;;2.53;83.46
43741;BME280;29352;48.708;9.290;2023-02-19T04:30:49;98307.22;;;2.41;83.62
43741;BME280;29352;48.708;9.290;2023-02-19T04:33:14;98316.81;;;2.50;83.14
43741;BME280;29352;48.708;9.290;2023-02-19T04:35:40;98304.81;;;2.29;83.30
43741;BME280;29352;48.708;9.290;2023-02-19T04:38:05;98315.81;;;2.25;83.12
43741;BME280;29352;48.708;9.290;2023-02-19T04:40:31;98318.72;;;1.96;83.31
43741;BME280;29352;48.708;9.290;2023-02-19T04:42:56;98313.44;;;2.13;83.57
43741;BME280;29352;48.708;9.290;2023-02-19T04:45:22;98332.88;;;2.38;82.42
43741;BME280;29352;48.708;9.290;2023-02-19T04:47:47;98326.06;;;2.10;83.45
43741;BME280;29352;48.708;9.290;2023-02-19T04:50:13;98329.16;;;2.23;82.67
43741;BME280;29352;48.708;9.290;2023-02-19T04:52:38;98326.88;;;2.28;82.22
43741;BME280;29352;48.708;9.290;2023-02-19T04:55:04;98333.03;;;2.19;82.33
43741;BME280;29352;48.708;9.290;2023-02-19T04:57:30;98344.66;;;2.26;82.13
43741;BME280;29352;48.708;9.290;2023-02-19T04:59:56;98338.84;;;2.05;82.62
43741;BME280;29352;48.708;9.290;2023-02-19T05:02:21;98343.38;;;2.30;81.63
43741;BME280;29352;48.708;9.290;2023-02-19T05:04:47;98348.69;;;2.38;81.04
43741;BME280;29352;48.708;9.290;2023-02-19T05:07:12;98349.00;;;2.35;80.93
43741;BME280;29352;48.708;9.290;2023-02-19T05:09:38;98355.72;;;2.30;80.99
43741;BME280;29352;48.708;9.290;2023-02-19T05:12:03;98351.88;;;2.24;81.30
43741;BME280;29352;48.708;9.290;2023-02-19T05:14:29;98344.94;;;2.23;81.42
43741;BME280;29352;48.708;9.290;2023-02-19T05:16:54;98348.16;;;2.35;81.12
43741;BME280;29352;48.708;9.290;2023-02-19T05:19:20;98347.63;;;2.31;81.00
43741;BME280;29352;48.708;9.290;2023-02-19T05:21:45;98339.69;;;2.23;81.21
43741;BME280;29352;48.708;9.290;2023-02-19T05:24:11;98352.34;;;2.46;80.94
43741;BME280;29352;48.708;9.290;2023-02-19T05:26:36;98353.47;;;2.61;80.57
43741;BME280;29352;48.708;9.290;2023-02-19T05:29:02;98366.31;;;2.38;81.32
43741;BME280;29352;48.708;9.290;2023-02-19T05:31:28;98349.22;;;2.24;82.15
43741;BME280;29352;48.708;9.290;2023-02-19T05:33:54;98354.78;;;2.39;81.08
43741;BME280;29352;48.708;9.290;2023-02-19T05:36:21;98346.09;;;2.47;81.08
43741;BME280;29352;48.708;9.290;2023-02-19T05:38:51;98345.16;;;2.30;81.01
43741;BME280;29352;48.708;9.290;2023-02-19T05:41:23;98350.88;;;2.25;81.26
43741;BME280;29352;48.708;9.290;2023-02-19T05:43:51;98353.22;;;2.28;81.06
43741;BME280;29352;48.708;9.290;2023-02-19T05:46:19;98360.38;;;2.62;80.30
43741;BME280;29352;48.708;9.290;2023-02-19T05:48:48;98363.16;;;2.17;81.43
43741;BME280;29352;48.708;9.290;2023-02-19T05:51:17;98360.66;;;2.15;81.63
43741;BME280;29352;48.708;9.290;2023-02-19T05:53:46;98360.94;;;2.48;80.68
43741;BME280;29352;48.708;9.290;2023-02-19T05:56:33;98355.78;;;2.20;81.84
43741;BME280;29352;48.708;9.290;2023-02-19T05:59:16;98359.75;;;2.42;81.46
43741;BME280;29352;48.708;9.290;2023-02-19T06:01:47;98366.53;;;2.27;81.93
43741;BME280;29352;48.708;9.290;2023-02-19T06:04:14;98362.53;;;2.41;81.33
43741;BME280;29352;48.708;9.290;2023-02-19T06:06:42;98370.09;;;2.00;82.06
43741;BME280;29352;48.708;9.290;2023-02-19T06:09:09;98373.28;;;2.29;81.60
43741;BME280;29352;48.708;9.290;2023-02-19T06:11:36;98375.84;;;2.39;81.24
43741;BME280;29352;48.708;9.290;2023-02-19T06:14:03;98384.13;;;1.90;81.90
43741;BME280;29352;48.708;9.290;2023-02-19T06:16:29;98382.50;;;2.07;81.48
43741;BME280;29352;48.708;9.290;2023-02-19T06:18:56;98389.41;;;2.08;81.34
43741;BME280;29352;48.708;9.290;2023-02-19T06:21:21;98393.84;;;2.08;81.82
43741;BME280;29352;48.708;9.290;2023-02-19T06:23:47;98397.91;;;2.02;82.66
43741;BME280;29352;48.708;9.290;2023-02-19T06:26:18;98396.63;;;2.24;82.51
43741;BME280;29352;48.708;9.290;2023-02-19T06:28:47;98417.25;;;2.29;83.41
43741;BME280;29352;48.708;9.290;2023-02-19T06:31:14;98425.91;;;1.76;85.94
43741;BME280;29352;48.708;9.290;2023-02-19T06:33:40;98431.50;;;1.63;87.10
43741;BME280;29352;48.708;9.290;2023-02-19T06:36:13;98430.47;;;1.46;87.21
43741;BME280;29352;48.708;9.290;2023-02-19T06:38:42;98440.16;;;1.46;87.78
43741;BME280;29352;48.708;9.290;2023-02-19T06:41:10;98439.91;;;1.39;85.69
43741;BME280;29352;48.708;9.290;2023-02-19T06:43:36;98448.13;;;1.26;86.35
43741;BME280;29352;48.708;9.290;2023-02-19T06:46:03;98456.56;;;1.30;86.15
43741;BME280;29352;48.708;9.290;2023-02-19T06:48:31;98451.56;;;1.36;85.68
43741;BME280;29352;48.708;9.290;2023-02-19T06:50:58;98452.41;;;1.27;85.43
43741;BME280;29352;48.708;9.290;2023-02-19T06:53:23;98445.97;;;1.49;84.96
43741;BME280;29352;48.708;9.290;2023-02-19T06:56:04;98460.34;;;1.55;83.47
43741;BME280;29352;48.708;9.290;2023-02-19T06:58:32;98461.28;;;1.26;83.24
43741;BME280;29352;48.708;9.290;2023-02-19T07:00:57;98464.13;;;1.42;82.93
43741;BME280;29352;48.708;9.290;2023-02-19T07:03:23;98461.78;;;1.39;81.01
43741;BME280;29352;48.708;9.290;2023-02-19T07:05:50;98464.53;;;1.48;80.44
43741;BME280;29352;48.708;9.290;2023-02-19T07:08:16;98471.44;;;1.49;80.02
43741;BME280;29352;48.708;9.290;2023-02-19T07:10:43;98472.69;;;1.45;79.92
43741;BME280;29352;48.708;9.290;2023-02-19T07:13:09;98470.63;;;1.48;79.01
43741;BME280;29352;48.708;9.290;2023-02-19T07:15:35;98486.59;;;1.37;79.48
43741;BME280;29352;48.708;9.290;2023-02-19T07:18:00;98491.31;;;1.24;79.50
43741;BME280;29352;48.708;9.290;2023-02-19T07:20:25;98492.69;;;1.28;79.39
43741;BME280;29352;48.708;9.290;2023-02-19T07:22:51;98487.53;;;1.36;79.81
43741;BME280;29352;48.708;9.290;2023-02-19T07:25:16;98504.13;;;1.46;79.31
43741;BME280;29352;48.708;9.290;2023-02-19T07:27:42;98504.13;;;1.46;79.94
43741;BME280;29352;48.708;9.290;2023-02-19T07:30:08;98501.16;;;1.59;79.67
43741;BME280;29352;48.708;9.290;2023-02-19T07:32:33;98505.09;;;1.45;80.41
43741;BME280;29352;48.708;9.290;2023-02-19T07:34:59;98513.13;;;1.43;80.76
43741;BME280;29352;48.708;9.290;2023-02-19T07:37:24;98503.53;;;1.52;79.95
43741;BME280;29352;48.708;9.290;2023-02-19T07:39:50;98517.25;;;1.56;79.67
43741;BME280;29352;48.708;9.290;2023-02-19T07:42:15;98503.53;;;1.52;79.29
43741;BME280;29352;48.708;9.290;2023-02-19T07:44:40;98510.03;;;1.58;78.83
43741;BME280;29352;48.708;9.290;2023-02-19T07:47:06;98515.06;;;1.41;79.67
43741;BME280;29352;48.708;9.290;2023-02-19T07:49:31;98514.06;;;1.52;79.02
43741;BME280;29352;48.708;9.290;2023-02-19T07:51:57;98503.25;;;1.55;79.04
43741;BME280;29352;48.708;9.290;2023-02-19T07:54:23;98511.94;;;1.65;78.33
43741;BME280;29352;48.708;9.290;2023-02-19T07:56:48;98507.22;;;1.69;78.33
43741;BME280;29352;48.708;9.290;2023-02-19T07:59:14;98499.91;;;1.63;77.13
43741;BME280;29352;48.708;9.290;2023-02-19T08:01:40;98500.56;;;1.75;76.37
43741;BME280;29352;48.708;9.290;2023-02-19T08:04:23;98496.50;;;1.80;76.12
43741;BME280;29352;48.708;9.290;2023-02-19T08:06:49;98492.06;;;1.90;75.55
43741;BME280;29352;48.708;9.290;2023-02-19T08:09:16;98490.13;;;1.93;75.17
43741;BME280;29352;48.708;9.290;2023-02-19T08:11:42;98489.88;;;1.76;75.56
43741;BME280;29352;48.708;9.290;2023-02-19T08:14:26;98490.28;;;1.81;75.28
43741;BME280;29352;48.708;9.290;2023-02-19T08:16:53;98495.22;;;1.94;74.70
43741;BME280;29352;48.708;9.290;2023-02-19T08:19:20;98493.63;;;2.11;74.57
43741;BME280;29352;48.708;9.290;2023-02-19T08:21:46;98491.97;;;2.10;74.62
43741;BME280;29352;48.708;9.290;2023-02-19T08:24:11;98502.16;;;1.95;74.79
43741;BME280;29352;48.708;9.290;2023-02-19T08:26:37;98507.75;;;2.10;74.71
43741;BME280;29352;48.708;9.290;2023-02-19T08:29:04;98526.19;;;2.10;74.80
43741;BME280;29352;48.708;9.290;2023-02-19T08:31:30;98532.91;;;2.22;74.38
43741;BME280;29352;48.708;9.290;2023-02-19T08:33:56;98543.03;;;2.27;73.99
43741;BME280;29352;48.708;9.290;2023-02-19T08:36:22;98546.97;;;2.41;73.26
43741;BME280;29352;48.708;9.290;2023-02-19T08:38:47;98556.81;;;2.11;74.01
43741;BME280;29352;48.708;9.290;2023-02-19T08:41:13;98564.97;;;2.18;73.69
43741;BME280;29352;48.708;9.290;2023-02-19T08:43:40;98572.47;;;2.12;73.89
43741;BME280;29352;48.708;9.290;2023-02-19T08:46:08;98560.44;;;2.10;75.53
43741;BME280;29352;48.708;9.290;2023-02-19T08:48:35;98561.00;;;2.04;75.11
43741;BME280;29352;48.708;9.290;2023-02-19T08:51:03;98558.81;;;1.99;75.62
43741;BME280;29352;48.708;9.290;2023-02-19T08:53:34;98559.16;;;2.14;75.40
43741;BME280;29352;48.708;9.290;2023-02-19T08:56:12;98569.84;;;2.12;75.49
43741;BME280;29352;48.708;9.290;2023-02-19T08:58:40;98566.69;;;2.09;75.37
43741;BME280;29352;48.708;9.290;2023-02-19T09:01:12;98576.13;;;2.29;75.29
43741;BME280;29352;48.708;9.290;2023-02-19T09:03:40;98577.66;;;2.50;74.41
43741;BME280;29352;48.708;9.290;2023-02-19T09:06:06;98582.91;;;2.32;74.58
43741;BME280;29352;48.708;9.290;2023-02-19T09:08:32;98576.59;;;2.43;74.18
43741;BME280;29352;48.708;9.290;2023-02-19T09:11:02;98587.50;;;2.30;74.27
43741;BME280;29352;48.708;9.290;2023-02-19T09:13:31;98584.09;;;2.47;73.87
43741;BME280;29352;48.708;9.290;2023-02-19T09:15:56;98584.75;;;2.67;73.48
43741;BME280;29352;48.708;9.290;2023-02-19T09:18:23;98585.06;;;2.64;73.74
43741;BME280;29352;48.708;9.290;2023-02-19T09:20:50;98578.53;;;2.68;73.09
43741;BME280;29352;48.708;9.290;2023-02-19T09:23:16;98587.41;;;2.67;72.57
43741;BME280;29352;48.708;9.290;2023-02-19T09:25:41;98608.03;;;2.54;72.28
43741;BME280;29352;48.708;9.290;2023-02-19T09:28:07;98603.13;;;2.59;72.57
43741;BME280;29352;48.708;9.290;2023-02-19T09:30:33;98607.88;;;2.55;72.33
43741;BME280;29352;48.708;9.290;2023-02-19T09:32:58;98607.53;;;2.68;72.19
43741;BME280;29352;48.708;9.290;2023-02-19T09:35:24;98614.06;;;2.64;70.72
43741;BME280;29352;48.708;9.290;2023-02-19T09:37:49;98614.69;;;2.76;70.42
43741;BME280;29352;48.708;9.290;2023-02-19T09:40:15;98612.66;;;2.88;70.13
43741;BME280;29352;48.708;9.290;2023-02-19T09:42:47;98609.88;;;3.07;68.89
43741;BME280;29352;48.708;9.290;2023-02-19T09:45:22;98604.09;;;2.85;68.42
43741;BME280;29352;48.708;9.290;2023-02-19T09:47:54;98601.44;;;2.85;67.70
43741;BME280;29352;48.708;9.290;2023-02-19T09:50:33;98606.78;;;2.94;67.27
43741;BME280;29352;48.708;9.290;2023-02-19T09:53:19;98607.09;;;3.26;66.15
43741;BME280;29352;48.708;9.290;2023-02-19T09:55:51;98617.66;;;3.26;66.34
43741;BME280;29352;48.708;9.290;2023-02-19T09:58:31;98625.53;;;3.62;65.82
43741;BME280;29352;48.708;9.290;2023-02-19T10:01:04;98611.16;;;3.21;65.54
43741;BME280;29352;48.708;9.290;2023-02-19T10:03:38;98622.06;;;3.62;64.82
43741;BME280;29352;48.708;9.290;2023-02-19T10:08:52;98618.41;;;3.37;65.05
43741;BME280;29352;48.708;9.290;2023-02-19T10:11:24;98605.56;;;3.60;64.81
43741;BME280;29352;48.708;9.290;2023-02-19T10:13:54;98607.50;;;3.57;64.75
43741;BME280;29352;48.708;9.290;2023-02-19T10:16:41;98609.38;;;3.91;64.24
43741;BME280;29352;48.708;9.290;2023-02-19T10:19:14;98598.69;;;3.93;63.73
43741;BME280;29352;48.708;9.290;2023-02-19T10:21:41;98608.00;;;3.79;64.09
43741;BME280;29352;48.708;9.290;2023-02-19T10:24:17;98618.13;;;4.18;63.51
43741;BME280;29352;48.708;9.290;2023-02-19T10:26:49;98608.38;;;4.18;63.64
43741;BME280;29352;48.708;9.290;2023-02-19T10:29:14;98613.75;;;4.35;63.66
43741;BME280;29352;48.708;9.290;2023-02-19T10:31:40;98623.78;;;3.97;64.42
43741;BME280;29352;48.708;9.290;2023-02-19T10:34:20;98610.47;;;4.07;64.55
43741;BME280;29352;48.708;9.290;2023-02-19T10:36:49;98620.91;;;4.16;64.53
43741;BME280;29352;48.708;9.290;2023-02-19T10:41:57;98628.59;;;4.01;64.61
43741;BME280;29352;48.708;9.290;2023-02-19T10:44:27;98641.84;;;4.10;64.28
43741;BME280;29352;48.708;9.290;2023-02-19T10:46:59;98636.00;;;3.98;64.04
43741;BME280;29352;48.708;9.290;2023-02-19T10:49:31;98639.38;;;4.08;63.79
43741;BME280;29352;48.708;9.290;2023-02-19T10:52:30;98646.47;;;4.08;63.10
43741;BME280;29352;48.708;9.290;2023-02-19T10:55:24;98649.09;;;4.08;63.44
43741;BME280;29352;48.708;9.290;2023-02-19T10:57:56;98634.28;;;4.49;62.76
43741;BME280;29352;48.708;9.290;2023-02-19T11:00:27;98633.59;;;4.47;62.22
43741;BME280;29352;48.708;9.290;2023-02-19T11:06:02;98627.00;;;5.02;61.41
43741;BME280;29352;48.708;9.290;2023-02-19T11:08:51;98628.84;;;5.91;59.61
43741;BME280;29352;48.708;9.290;2023-02-19T11:11:25;98633.00;;;5.85;59.93
43741;BME280;29352;48.708;9.290;2023-02-19T11:13:54;98626.03;;;6.87;58.15
43741;BME280;29352;48.708;9.290;2023-02-19T11:16:22;98612.56;;;6.10;57.76
43741;BME280;29352;48.708;9.290;2023-02-19T11:19:01;98614.44;;;6.41;57.91
43741;BME280;29352;48.708;9.290;2023-02-19T11:21:29;98612.13;;;6.46;57.62
43741;BME280;29352;48.708;9.290;2023-02-19T11:23:59;98609.84;;;6.74;56.26
43741;BME280;29352;48.708;9.290;2023-02-19T11:26:32;98622.13;;;6.59;56.14
43741;BME280;29352;48.708;9.290;2023-02-19T11:29:15;98628.59;;;6.17;56.86
43741;BME280;29352;48.708;9.290;2023-02-19T11:31:44;98625.56;;;5.81;58.20
43741;BME280;29352;48.708;9.290;2023-02-19T11:36:39;98638.97;;;5.63;58.51
43741;BME280;29352;48.708;9.290;2023-02-19T11:44:38;98630.50;;;5.10;59.33
43741;BME280;29352;48.708;9.290;2023-02-19T11:56:09;98652.28;;;4.96;60.20
43741;BME280;29352;48.708;9.290;2023-02-19T11:58:55;98639.94;;;4.54;60.33
43741;BME280;29352;48.708;9.290;2023-02-19T12:04:52;98643.97;;;4.74;60.25
43741;BME280;29352;48.708;9.290;2023-02-19T12:11:02;98655.78;;;5.13;60.20
43741;BME280;29352;48.708;9.290;2023-02-19T12:17:49;98666.50;;;5.03;59.84
43741;BME280;29352;48.708;9.290;2023-02-19T12:20:13;98661.91;;;5.13;60.02
43741;BME280;29352;48.708;9.290;2023-02-19T12:29:35;98638.25;;;5.20;59.36
43741;BME280;29352;48.708;9.290;2023-02-19T12:32:38;98623.53;;;5.09;58.94
43741;BME280;29352;48.708;9.290;2023-02-19T12:38:24;98618.94;;;5.60;58.49
43741;BME280;29352;48.708;9.290;2023-02-19T12:43:39;98626.53;;;5.47;57.85
43741;BME280;29352;48.708;9.290;2023-02-19T12:46:33;98630.34;;;5.04;58.58
43741;BME280;29352;48.708;9.290;2023-02-19T12:51:48;98639.41;;;4.93;58.72
43741;BME280;29352;48.708;9.290;2023-02-19T12:57:09;98636.41;;;4.45;59.57
43741;BME280;29352;48.708;9.290;2023-02-19T13:02:12;98625.13;;;4.78;59.34
43741;BME280;29352;48.708;9.290;2023-02-19T13:04:49;98630.72;;;4.66;59.63
43741;BME280;29352;48.708;9.290;2023-02-19T13:07:38;98630.50;;;5.10;59.66
43741;BME280;29352;48.708;9.290;2023-02-19T13:13:04;98618.59;;;5.47;58.06
43741;BME280;29352;48.708;9.290;2023-02-19T13:15:59;98624.56;;;5.25;58.21
43741;BME280;29352;48.708;9.290;2023-02-19T13:18:37;98631.78;;;4.90;58.73
43741;BME280;29352;48.708;9.290;2023-02-19T13:21:09;98625.78;;;4.71;59.10
43741;BME280;29352;48.708;9.290;2023-02-19T13:23:41;98620.03;;;4.84;59.06
43741;BME280;29352;48.708;9.290;2023-02-19T13:29:57;98616.88;;;4.89;58.53
43741;BME280;29352;48.708;9.290;2023-02-19T13:33:10;98630.22;;;4.63;59.22
43741;BME280;29352;48.708;9.290;2023-02-19T13:38:40;98648.72;;;4.28;60.00
43741;BME280;29352;48.708;9.290;2023-02-19T13:41:29;98642.78;;;4.00;60.32
43741;BME280;29352;48.708;9.290;2023-02-19T13:44:03;98635.78;;;4.17;60.12
43741;BME280;29352;48.708;9.290;2023-02-19T13:46:38;98625.31;;;4.08;60.97
43741;BME280;29352;48.708;9.290;2023-02-19T13:49:22;98617.69;;;4.31;60.50
43741;BME280;29352;48.708;9.290;2023-02-19T13:51:56;98619.09;;;4.51;60.01
43741;BME280;29352;48.708;9.290;2023-02-19T13:54:27;98623.41;;;4.18;60.38
43741;BME280;29352;48.708;9.290;2023-02-19T13:59:52;98622.38;;;4.11;60.66
43741;BME280;29352;48.708;9.290;2023-02-19T14:04:53;98621.69;;;4.09;60.75
43741;BME280;29352;48.708;9.290;2023-02-19T14:07:37;98618.84;;;4.02;60.73
43741;BME280;29352;48.708;9.290;2023-02-19T14:18:52;98629.72;;;3.99;60.91
43741;BME280;29352;48.708;9.290;2023-02-19T14:21:33;98627.97;;;4.08;60.61
43741;BME280;29352;48.708;9.290;2023-02-19T14:24:02;98625.75;;;3.95;61.36
43741;BME280;29352;48.708;9.290;2023-02-19T14:26:31;98626.22;;;3.90;61.24
43741;BME280;29352;48.708;9.290;2023-02-19T14:29:00;98619.38;;;3.79;61.30
43741;BME280;29352;48.708;9.290;2023-02-19T14:31:35;98629.94;;;4.06;61.08
43741;BME280;29352;48.708;9.290;2023-02-19T14:34:19;98626.47;;;4.05;61.33
43741;BME280;29352;48.708;9.290;2023-02-19T14:36:56;98637.81;;;3.97;60.94
43741;BME280;29352;48.708;9.290;2023-02-19T14:39:29;98645.25;;;4.02;61.56
43741;BME280;29352;48.708;9.290;2023-02-19T14:42:04;98644.03;;;3.88;61.55
43741;BME280;29352;48.708;9.290;2023-02-19T14:47:20;98642.53;;;3.86;61.56
43741;BME280;29352;48.708;9.290;2023-02-19T14:49:53;98638.53;;;3.82;61.73
43741;BME280;29352;48.708;9.290;2023-02-19T14:52:35;98641.03;;;3.83;61.14
43741;BME280;29352;48.708;9.290;2023-02-19T14:57:55;98665.88;;;3.72;61.44
43741;BME280;29352;48.708;9.290;2023-02-19T15:02:54;98661.69;;;3.62;61.52
43741;BME280;29352;48.708;9.290;2023-02-19T15:05:34;98665.56;;;3.75;61.13
43741;BME280;29352;48.708;9.290;2023-02-19T15:08:13;98658.22;;;3.43;61.87
43741;BME280;29352;48.708;9.290;2023-02-19T15:10:46;98669.03;;;3.76;61.41
43741;BME280;29352;48.708;9.290;2023-02-19T15:13:20;98671.06;;;3.64;62.43
43741;BME280;29352;48.708;9.290;2023-02-19T15:15:53;98678.09;;;3.73;62.89
43741;BME280;29352;48.708;9.290;2023-02-19T15:18:24;98685.81;;;3.49;63.12
43741;BME280;29352;48.708;9.290;2023-02-19T15:21:00;98687.22;;;3.43;63.39
43741;BME280;29352;48.708;9.290;2023-02-19T15:23:30;98689.34;;;3.40;63.76
43741;BME280;29352;48.708;9.290;2023-02-19T15:25:58;98691.91;;;3.31;64.11
43741;BME280;29352;48.708;9.290;2023-02-19T15:31:02;98705.97;;;3.22;64.29
43741;BME280;29352;48.708;9.290;2023-02-19T15:33:32;98699.63;;;3.15;64.46
43741;BME280;29352;48.708;9.290;2023-02-19T15:36:02;98705.81;;;3.34;64.44
43741;BME280;29352;48.708;9.290;2023-02-19T15:38:30;98711.25;;;3.22;64.59